Time;durP1;ratioP1;P1;durP2;ratioP2;P2;SDS_P1;SDS_P2;PMS_P1;PMS_P2;Temp;Humidity;BMP_temperature;BMP_pressure;BME280_temperature;BME280_humidity;BME280_pressure;Samples;Min_cycle;Max_cycle;Signal;HPM_P1;HPM_P2
2023/01/01 00:01:39;;;;;;;34.40;21.98;;;;;;;10.76;88.53;97536.50;5032639;28;20050;-64
2023/01/01 00:04:09;;;;;;;32.42;21.77;;;;;;;10.70;88.75;97522.06;5024120;28;20063;-68
2023/01/01 00:06:36;;;;;;;35.60;23.02;;;;;;;10.62;89.29;97534.13;5028179;28;20493;-67
2023/01/01 00:11:48;;;;;;;34.10;22.35;;;;;;;10.64;89.15;97531.16;5039684;28;20508;-68
2023/01/01 00:14:15;;;;;;;32.97;23.17;;;;;;;10.67;88.98;97536.09;5034395;28;20084;-66
2023/01/01 00:16:41;;;;;;;33.40;23.58;;;;;;;10.77;88.29;97547.06;5033461;28;20056;-67
2023/01/01 00:19:08;;;;;;;34.67;24.50;;;;;;;10.78;87.96;97540.59;5033483;28;20041;-67
2023/01/01 00:21:34;;;;;;;32.70;21.83;;;;;;;10.78;87.78;97540.59;5037506;28;20128;-66
2023/01/01 00:24:01;;;;;;;30.45;20.90;;;;;;;10.85;87.73;97547.72;5043561;28;20526;-66
2023/01/01 00:26:27;;;;;;;31.92;21.02;;;;;;;10.89;87.15;97541.56;5044723;28;20080;-67
2023/01/01 00:29:00;;;;;;;31.55;20.63;;;;;;;10.92;86.61;97542.94;5032340;28;20049;-66
2023/01/01 00:31:27;;;;;;;34.97;22.55;;;;;;;10.75;87.70;97538.38;5025582;28;20045;-68
2023/01/01 00:33:55;;;;;;;33.70;22.00;;;;;;;10.63;88.07;97532.25;5032873;28;20067;-65
2023/01/01 00:36:24;;;;;;;37.22;24.08;;;;;;;10.45;88.98;97544.97;5051075;28;20490;-67
2023/01/01 00:38:51;;;;;;;34.75;22.92;;;;;;;10.49;89.22;97548.00;5032098;28;20049;-66
2023/01/01 00:41:18;;;;;;;33.95;23.40;;;;;;;10.23;90.28;97542.97;5039059;28;20044;-67
2023/01/01 00:43:45;;;;;;;34.72;23.17;;;;;;;10.28;90.04;97540.34;5037101;28;20056;-66
2023/01/01 00:46:11;;;;;;;36.38;24.05;;;;;;;10.24;89.91;97541.06;5029709;28;20527;-68
2023/01/01 00:48:38;;;;;;;37.58;24.05;;;;;;;9.98;91.83;97530.66;5039309;28;20052;-66
2023/01/01 00:51:05;;;;;;;34.42;24.55;;;;;;;9.89;92.42;97535.63;5032863;28;20088;-66
2023/01/01 00:53:32;;;;;;;35.47;22.80;;;;;;;9.84;92.62;97530.16;5043353;28;20049;-68
2023/01/01 00:55:59;;;;;;;33.15;23.08;;;;;;;9.84;93.11;97532.03;5038121;28;20051;-67
2023/01/01 00:58:26;;;;;;;36.58;23.00;;;;;;;9.88;92.80;97530.50;5023520;28;20520;-67
2023/01/01 01:00:53;;;;;;;34.20;23.75;;;;;;;9.91;92.86;97543.50;5034472;28;20292;-68
2023/01/01 01:03:29;;;;;;;39.25;25.10;;;;;;;9.96;92.18;97540.91;5023686;28;20725;-65
2023/01/01 01:05:59;;;;;;;35.88;24.00;;;;;;;9.98;92.17;97544.19;5033600;28;20102;-67
2023/01/01 01:08:27;;;;;;;34.83;22.70;;;;;;;9.90;92.60;97536.47;5053965;28;20052;-67
2023/01/01 01:11:23;;;;;;;36.58;23.25;;;;;;;9.80;92.96;97536.28;5034677;28;20045;-65
2023/01/01 01:13:54;;;;;;;35.20;22.95;;;;;;;9.76;93.26;97538.66;5043071;28;20067;-66
2023/01/01 01:16:22;;;;;;;36.30;22.73;;;;;;;9.67;93.54;97538.22;5025954;28;20049;-68
2023/01/01 01:18:50;;;;;;;33.30;21.13;;;;;;;9.72;93.41;97534.78;5038830;28;20045;-66
2023/01/01 01:21:19;;;;;;;36.17;22.98;;;;;;;9.59;93.88;97536.72;5034884;28;20069;-60
2023/01/01 01:23:47;;;;;;;33.67;21.85;;;;;;;9.46;94.84;97535.13;5033488;28;20102;-60
2023/01/01 01:26:25;;;;;;;35.75;23.35;;;;;;;9.41;94.72;97535.03;5029695;28;20040;-60
2023/01/01 01:28:52;;;;;;;31.20;20.27;;;;;;;9.44;94.69;97536.44;5035902;28;20496;-60
2023/01/01 01:31:21;;;;;;;31.67;22.15;;;;;;;9.36;94.55;97535.75;5036465;28;20041;-60
2023/01/01 01:33:48;;;;;;;37.90;24.05;;;;;;;9.21;95.70;97543.53;5029724;28;20052;-64
2023/01/01 01:36:16;;;;;;;35.72;23.92;;;;;;;9.01;96.10;97549.34;5038434;28;20212;-63
2023/01/01 01:38:43;;;;;;;37.35;24.35;;;;;;;8.58;98.67;97547.63;5033628;28;20141;-63
2023/01/01 01:41:15;;;;;;;32.72;22.08;;;;;;;8.71;98.63;97538.44;5033657;28;20040;-63
2023/01/01 01:44:01;;;;;;;42.65;24.33;;;;;;;8.57;98.71;97545.16;5036567;28;20052;-64
2023/01/01 01:46:41;;;;;;;34.70;24.13;;;;;;;8.44;99.99;97541.59;5028085;28;20523;-64
2023/01/01 01:49:20;;;;;;;34.72;20.48;;;;;;;8.42;100.00;97546.41;5029359;28;20032;-63
2023/01/01 01:51:47;;;;;;;32.80;19.77;;;;;;;8.39;100.00;97540.66;5035404;28;20063;-64
2023/01/01 01:54:21;;;;;;;32.67;21.15;;;;;;;8.27;100.00;97543.34;5025625;28;20107;-63
2023/01/01 01:56:50;;;;;;;33.22;21.35;;;;;;;8.20;100.00;97544.28;5027508;28;20041;-63
2023/01/01 01:59:19;;;;;;;31.23;20.17;;;;;;;8.24;100.00;97552.72;5026616;28;20525;-64
2023/01/01 02:01:46;;;;;;;32.38;20.33;;;;;;;8.54;100.00;97554.53;5035488;28;20064;-64
2023/01/01 02:04:12;;;;;;;29.88;18.77;;;;;;;8.77;99.97;97550.19;5030903;28;20034;-64
2023/01/01 02:06:39;;;;;;;28.52;18.25;;;;;;;8.80;99.47;97557.00;5043475;28;20045;-63
2023/01/01 02:09:08;;;;;;;28.17;18.42;;;;;;;8.92;98.41;97557.81;5032204;28;20132;-63
2023/01/01 02:11:34;;;;;;;24.67;16.45;;;;;;;9.21;97.43;97559.75;5035436;28;20041;-64
2023/01/01 02:14:02;;;;;;;20.90;15.40;;;;;;;9.32;96.46;97560.81;5046437;28;20436;-63
2023/01/01 02:16:53;;;;;;;27.10;15.80;;;;;;;9.26;96.22;97561.75;5048312;28;20059;-64
2023/01/01 02:19:22;;;;;;;26.33;15.57;;;;;;;9.18;97.10;97560.25;5035052;28;20578;-63
2023/01/01 02:22:06;;;;;;;24.50;15.48;;;;;;;9.27;96.60;97561.50;5034608;28;20049;-63
2023/01/01 02:24:47;;;;;;;23.80;15.40;;;;;;;9.41;95.54;97563.94;5025512;28;20049;-63
2023/01/01 02:27:32;;;;;;;24.33;15.67;;;;;;;9.33;96.03;97565.94;5025380;28;20061;-63
2023/01/01 02:30:04;;;;;;;23.00;15.57;;;;;;;9.18;96.51;97568.34;5025896;28;20286;-63
2023/01/01 02:32:44;;;;;;;24.88;16.77;;;;;;;9.01;97.56;97568.25;5037855;28;20045;-64
2023/01/01 02:35:35;;;;;;;24.77;15.05;;;;;;;9.21;96.67;97566.00;5031898;28;20120;-64
2023/01/01 02:38:25;;;;;;;22.15;14.07;;;;;;;9.16;96.57;97570.44;5024298;28;20069;-64
2023/01/01 02:41:04;;;;;;;24.55;14.82;;;;;;;9.15;96.32;97560.72;5025258;28;20120;-64
2023/01/01 02:43:31;;;;;;;25.70;14.85;;;;;;;9.08;96.87;97568.94;5037841;28;20501;-64
2023/01/01 02:45:58;;;;;;;23.23;15.10;;;;;;;8.97;96.98;97565.22;5050411;28;20136;-63
2023/01/01 02:48:40;;;;;;;23.50;14.57;;;;;;;8.82;97.80;97560.28;5045515;28;20045;-64
2023/01/01 02:51:13;;;;;;;22.35;14.52;;;;;;;8.65;98.46;97571.78;5037482;28;20044;-64
2023/01/01 02:53:57;;;;;;;23.85;15.32;;;;;;;8.39;99.61;97563.06;5031930;28;20045;-64
2023/01/01 02:56:36;;;;;;;26.77;16.60;;;;;;;8.27;100.00;97567.63;5046361;28;20045;-64
2023/01/01 03:02:18;;;;;;;22.20;14.18;;;;;;;8.01;100.00;97566.97;5044124;28;20037;-63
2023/01/01 03:05:07;;;;;;;21.98;13.27;;;;;;;7.80;100.00;97571.84;5036962;28;20075;-63
2023/01/01 03:07:52;;;;;;;21.42;14.32;;;;;;;7.52;100.00;97567.88;5045961;28;20382;-63
2023/01/01 03:10:31;;;;;;;20.42;12.25;;;;;;;7.48;100.00;97559.41;5028434;28;20052;-64
2023/01/01 03:13:19;;;;;;;17.23;9.52;;;;;;;7.67;100.00;97557.50;5044880;28;20055;-64
2023/01/01 03:16:01;;;;;;;15.48;9.75;;;;;;;8.00;100.00;97560.75;5037282;28;20045;-64
2023/01/01 03:18:36;;;;;;;;;;;;;;;8.23;100.00;97563.75;5043184;28;20129;-64
2023/01/01 03:21:06;;;;;;;14.63;7.13;;;;;;;8.55;99.71;97566.16;5028067;28;19960;-64
2023/01/01 03:23:38;;;;;;;13.70;7.82;;;;;;;8.54;96.44;97572.59;5040761;28;20041;-64
2023/01/01 03:26:14;;;;;;;15.10;8.60;;;;;;;8.24;99.20;97577.00;5037684;28;20214;-64
2023/01/01 03:28:57;;;;;;;12.57;7.18;;;;;;;8.11;100.00;97586.09;5028676;28;20052;-64
2023/01/01 03:31:25;;;;;;;14.00;7.70;;;;;;;8.07;100.00;97584.91;5027728;28;20497;-64
2023/01/01 03:34:04;;;;;;;10.82;6.72;;;;;;;8.14;100.00;97596.44;5038055;28;20177;-64
2023/01/01 03:36:36;;;;;;;13.93;6.95;;;;;;;8.23;100.00;97593.41;5040120;28;20042;-63
2023/01/01 03:39:13;;;;;;;9.20;5.93;;;;;;;8.44;98.91;97595.56;5027493;28;20045;-64
2023/01/01 03:41:47;;;;;;;11.27;5.90;;;;;;;8.41;98.09;97595.22;5036446;28;20036;-63
2023/01/01 03:44:46;;;;;;;9.85;5.15;;;;;;;8.30;98.31;97588.75;5045285;28;20043;-64
2023/01/01 03:47:14;;;;;;;8.80;5.43;;;;;;;8.28;98.77;97596.22;5039007;28;20056;-64
2023/01/01 03:49:42;;;;;;;9.25;4.40;;;;;;;8.28;98.75;97591.66;5048945;28;20477;-64
2023/01/01 03:52:25;;;;;;;12.75;5.30;;;;;;;8.10;97.99;97592.56;5047992;28;20378;-64
2023/01/01 03:55:03;;;;;;;9.23;5.38;;;;;;;7.89;99.58;97593.91;5045984;28;20052;-64
2023/01/01 03:57:44;;;;;;;8.38;4.30;;;;;;;7.99;100.00;97598.75;5044461;28;20053;-64
2023/01/01 04:00:17;;;;;;;8.38;4.20;;;;;;;7.99;99.85;97590.66;5038106;28;20045;-64
2023/01/01 04:02:52;;;;;;;8.57;4.00;;;;;;;8.02;98.52;97579.41;5037760;28;20060;-64
2023/01/01 04:05:19;;;;;;;5.80;3.10;;;;;;;8.09;99.15;97582.84;5028331;28;20068;-63
2023/01/01 04:07:47;;;;;;;6.43;3.50;;;;;;;8.14;98.45;97596.44;5045262;28;20037;-64
2023/01/01 04:10:16;;;;;;;6.15;3.47;;;;;;;8.25;96.73;97585.94;5067803;28;20086;-64
2023/01/01 04:12:54;;;;;;;8.82;3.30;;;;;;;8.33;96.95;97583.69;5052351;28;20498;-63
2023/01/01 04:15:24;;;;;;;8.35;3.30;;;;;;;8.34;95.99;97589.94;5047365;28;20555;-63
2023/01/01 04:17:52;;;;;;;6.78;2.90;;;;;;;8.50;94.92;97596.50;5048684;28;20141;-63
2023/01/01 04:20:19;;;;;;;5.95;3.25;;;;;;;8.61;95.08;97589.50;5050613;28;20045;-63
2023/01/01 04:22:45;;;;;;;7.80;3.17;;;;;;;8.72;94.04;97590.56;5047290;28;20053;-63
2023/01/01 04:25:13;;;;;;;5.57;2.90;;;;;;;8.82;93.66;97585.41;5040656;28;20504;-64
2023/01/01 04:27:40;;;;;;;6.28;2.67;;;;;;;8.91;92.42;97585.88;5046418;28;20218;-64
2023/01/01 04:30:09;;;;;;;6.38;2.90;;;;;;;8.97;91.37;97582.25;5047503;28;20079;-64
2023/01/01 04:32:36;;;;;;;4.88;2.58;;;;;;;9.00;92.07;97580.94;5046439;28;20045;-64
2023/01/01 04:35:04;;;;;;;4.78;2.42;;;;;;;9.01;91.19;97576.34;5047450;28;20048;-64
2023/01/01 04:37:30;;;;;;;5.05;2.15;;;;;;;9.05;91.57;97577.53;5047871;28;20079;-64
2023/01/01 04:39:57;;;;;;;6.30;2.85;;;;;;;9.08;91.38;97577.06;5047081;28;20047;-63
2023/01/01 04:42:23;;;;;;;4.90;2.63;;;;;;;8.94;91.68;97588.13;5046565;28;20037;-64
2023/01/01 04:44:50;;;;;;;6.40;3.10;;;;;;;8.86;92.36;97591.16;5047317;28;20501;-64
2023/01/01 04:47:17;;;;;;;5.68;2.17;;;;;;;8.75;92.38;97597.38;5048013;28;20068;-63
2023/01/01 04:49:44;;;;;;;5.28;3.33;;;;;;;8.79;93.22;97599.38;5047903;28;20215;-64
2023/01/01 04:52:11;;;;;;;4.97;3.28;;;;;;;8.70;93.30;97596.19;5045366;28;20455;-64
2023/01/01 04:54:37;;;;;;;5.43;2.53;;;;;;;8.68;92.75;97595.63;5045761;28;20049;-63
2023/01/01 04:57:04;;;;;;;8.27;2.80;;;;;;;8.23;95.02;97594.25;5035155;28;20045;-64
2023/01/01 04:59:30;;;;;;;4.75;2.50;;;;;;;8.09;96.26;97590.09;5047510;28;20041;-63
2023/01/01 05:01:57;;;;;;;6.13;2.40;;;;;;;8.00;96.05;97597.69;5032228;28;20115;-64
2023/01/01 05:04:24;;;;;;;5.85;3.20;;;;;;;7.83;96.78;97594.81;5041360;28;20051;-64
2023/01/01 05:06:50;;;;;;;6.93;2.40;;;;;;;7.69;99.20;97600.38;5046886;28;20497;-63
2023/01/01 05:09:17;;;;;;;5.07;2.40;;;;;;;7.52;99.31;97605.59;5046898;28;20175;-64
2023/01/01 05:11:43;;;;;;;7.47;2.42;;;;;;;7.40;100.00;97617.13;5042011;28;20069;-64
2023/01/01 05:14:10;;;;;;;4.75;1.92;;;;;;;7.33;100.00;97616.38;5045764;28;20041;-64
2023/01/01 05:16:38;;;;;;;5.75;2.60;;;;;;;7.15;100.00;97618.00;5039445;28;20448;-64
2023/01/01 05:19:06;;;;;;;5.20;2.28;;;;;;;7.25;100.00;97616.66;5038334;28;20504;-63
2023/01/01 05:21:34;;;;;;;6.18;2.33;;;;;;;7.26;100.00;97623.72;5045925;28;20583;-63
2023/01/01 05:24:06;;;;;;;5.80;2.40;;;;;;;7.46;100.00;97622.66;5046641;28;20570;-64
2023/01/01 05:26:34;;;;;;;;;;;;;;;7.44;100.00;97628.25;5047959;28;20463;-63
2023/01/01 05:29:01;;;;;;;4.13;2.05;;;;;;;7.33;100.00;97624.44;5046872;28;19920;-64
2023/01/01 05:31:30;;;;;;;4.45;2.20;;;;;;;7.40;100.00;97625.19;5045829;28;20065;-64
2023/01/01 05:33:57;;;;;;;6.30;2.13;;;;;;;7.41;100.00;97624.16;5045765;28;20507;-63
2023/01/01 05:36:31;;;;;;;4.95;2.08;;;;;;;7.39;100.00;97625.41;5046002;28;20094;-64
2023/01/01 05:38:58;;;;;;;3.95;1.90;;;;;;;7.48;100.00;97631.34;5045569;28;20072;-63
2023/01/01 05:41:24;;;;;;;5.03;2.30;;;;;;;7.38;100.00;97632.66;5037846;28;20041;-63
2023/01/01 05:43:51;;;;;;;4.22;2.20;;;;;;;7.55;100.00;97630.22;5033222;28;20055;-63
2023/01/01 05:46:21;;;;;;;5.90;1.90;;;;;;;7.49;100.00;97638.38;5045218;28;20154;-64
2023/01/01 05:48:48;;;;;;;4.85;1.83;;;;;;;7.45;100.00;97638.00;5047075;28;20044;-63
2023/01/01 05:51:20;;;;;;;5.45;2.00;;;;;;;7.38;100.00;97638.06;5045726;28;20044;-63
2023/01/01 05:53:47;;;;;;;7.38;1.80;;;;;;;7.43;100.00;97640.09;5046114;28;20037;-64
2023/01/01 05:56:15;;;;;;;4.63;2.13;;;;;;;7.53;100.00;97640.38;5045566;28;20041;-64
2023/01/01 05:58:42;;;;;;;2.90;1.42;;;;;;;7.51;100.00;97647.88;5045816;28;20401;-64
2023/01/01 06:01:12;;;;;;;7.85;1.65;;;;;;;7.52;100.00;97643.31;5044452;28;20126;-63
2023/01/01 06:03:39;;;;;;;3.70;1.98;;;;;;;7.35;100.00;97643.06;5046123;28;20483;-64
2023/01/01 06:06:11;;;;;;;3.55;1.90;;;;;;;7.24;100.00;97644.66;5044908;28;20064;-63
2023/01/01 06:08:39;;;;;;;3.78;1.60;;;;;;;7.18;100.00;97649.06;5045704;28;20090;-64
2023/01/01 06:11:09;;;;;;;3.97;1.90;;;;;;;7.32;100.00;97651.59;5043209;28;20075;-64
2023/01/01 06:13:36;;;;;;;5.32;2.13;;;;;;;7.29;100.00;97656.41;5043701;28;20029;-63
2023/01/01 06:16:03;;;;;;;3.10;1.50;;;;;;;7.23;100.00;97651.88;5032383;28;20296;-63
2023/01/01 06:18:32;;;;;;;5.10;2.00;;;;;;;7.01;100.00;97657.69;5045671;28;20099;-63
2023/01/01 06:21:07;;;;;;;4.20;1.90;;;;;;;7.03;100.00;97663.69;5032479;28;20496;-64
2023/01/01 06:23:34;;;;;;;5.13;2.08;;;;;;;7.16;100.00;97662.72;5044037;28;20037;-64
2023/01/01 06:26:11;;;;;;;5.55;1.95;;;;;;;7.30;100.00;97665.31;5034210;28;20045;-63
2023/01/01 06:28:40;;;;;;;4.32;1.90;;;;;;;7.44;100.00;97662.47;5045865;28;20384;-63
2023/01/01 06:31:09;;;;;;;3.85;1.80;;;;;;;7.41;100.00;97667.25;5027982;28;20057;-63
2023/01/01 06:33:37;;;;;;;7.65;2.30;;;;;;;7.34;100.00;97663.78;5029449;28;20041;-63
2023/01/01 06:36:07;;;;;;;5.32;2.08;;;;;;;7.29;100.00;97666.34;5045097;28;20397;-63
2023/01/01 06:38:36;;;;;;;4.88;2.10;;;;;;;7.19;100.00;97660.66;5044817;28;20487;-64
2023/01/01 06:41:05;;;;;;;5.55;1.90;;;;;;;7.19;100.00;97658.78;5044552;28;20311;-64
2023/01/01 06:43:33;;;;;;;6.25;1.80;;;;;;;7.21;100.00;97663.94;5045211;28;20033;-64
2023/01/01 06:46:06;;;;;;;4.20;1.45;;;;;;;7.40;100.00;97662.91;5043971;28;20052;-63
2023/01/01 06:48:35;;;;;;;7.22;2.40;;;;;;;7.50;100.00;97658.88;5048444;28;20045;-63
2023/01/01 06:51:29;;;;;;;4.25;1.90;;;;;;;7.76;100.00;97660.44;5038455;28;20063;-63
2023/01/01 06:54:01;;;;;;;3.97;1.73;;;;;;;7.71;98.98;97652.22;5043504;28;20556;-63
2023/01/01 06:56:27;;;;;;;;;;;;;;;7.55;100.00;97661.72;5043275;28;20049;-63
2023/01/01 06:58:55;;;;;;;6.82;2.20;;;;;;;7.50;100.00;97658.88;5045452;28;19924;-63
2023/01/01 07:01:25;;;;;;;5.97;2.33;;;;;;;7.49;100.00;97666.13;5043202;28;20072;-63
2023/01/01 07:03:54;;;;;;;6.25;2.25;;;;;;;7.38;100.00;97656.91;5044138;28;20041;-63
2023/01/01 07:06:21;;;;;;;7.35;2.50;;;;;;;7.19;100.00;97661.47;5025214;28;20041;-63
2023/01/01 07:08:48;;;;;;;7.65;2.60;;;;;;;7.07;100.00;97658.69;5045684;28;20045;-63
2023/01/01 07:11:15;;;;;;;5.03;2.20;;;;;;;7.01;100.00;97655.00;5062081;28;20040;-64
2023/01/01 07:13:42;;;;;;;6.85;2.25;;;;;;;6.93;100.00;97663.38;5041778;28;20393;-63
2023/01/01 07:16:09;;;;;;;5.03;1.80;;;;;;;6.85;100.00;97666.34;5042285;28;20049;-64
2023/01/01 07:18:39;;;;;;;4.50;2.10;;;;;;;7.00;100.00;97674.91;5034669;28;20044;-64
2023/01/01 07:21:21;;;;;;;4.70;2.05;;;;;;;7.02;100.00;97672.84;5035516;28;20100;-63
2023/01/01 07:23:59;;;;;;;3.97;1.75;;;;;;;7.22;100.00;97671.81;5033238;28;20508;-63
2023/01/01 07:26:27;;;;;;;4.80;2.40;;;;;;;7.18;100.00;97675.19;5028781;28;20195;-64
2023/01/01 07:28:54;;;;;;;4.00;2.10;;;;;;;7.51;100.00;97682.91;5035066;28;20052;-63
2023/01/01 07:31:24;;;;;;;4.82;2.15;;;;;;;7.73;98.79;97677.06;5037751;28;20052;-63
2023/01/01 07:33:51;;;;;;;6.28;2.53;;;;;;;7.92;99.58;97685.94;5035361;28;20566;-63
2023/01/01 07:36:18;;;;;;;4.88;2.33;;;;;;;8.06;97.67;97681.22;5027050;28;20045;-63
2023/01/01 07:38:44;;;;;;;5.90;2.50;;;;;;;8.19;98.18;97690.16;5033822;28;20055;-63
2023/01/01 07:41:10;;;;;;;5.78;2.30;;;;;;;8.46;96.64;97687.91;5041395;28;20132;-63
2023/01/01 07:43:37;;;;;;;8.20;2.53;;;;;;;8.64;95.30;97696.19;5029280;28;20386;-63
2023/01/01 07:46:04;;;;;;;5.65;2.70;;;;;;;8.77;94.56;97704.09;5041310;28;20211;-63
2023/01/01 07:48:30;;;;;;;5.00;2.40;;;;;;;8.95;93.49;97710.44;5040420;28;20468;-63
2023/01/01 07:51:05;;;;;;;5.38;2.33;;;;;;;8.98;93.16;97708.13;5034830;28;20099;-63
2023/01/01 07:53:31;;;;;;;6.30;2.80;;;;;;;9.07;92.55;97716.69;5039721;28;20048;-64
2023/01/01 07:55:58;;;;;;;5.70;2.45;;;;;;;9.22;91.70;97729.72;5040548;28;20055;-63
2023/01/01 07:58:25;;;;;;;6.82;2.80;;;;;;;9.37;90.72;97728.47;5041768;28;20040;-64
2023/01/01 08:00:51;;;;;;;6.78;2.67;;;;;;;9.57;89.49;97730.78;5032432;28;20076;-64
2023/01/01 08:03:18;;;;;;;5.88;2.67;;;;;;;9.45;90.04;97730.81;5051322;28;20041;-63
2023/01/01 08:05:44;;;;;;;5.88;2.65;;;;;;;9.42;90.09;97731.28;5026192;28;20342;-64
2023/01/01 08:08:11;;;;;;;7.32;2.88;;;;;;;9.44;89.88;97726.44;5035674;28;20269;-63
2023/01/01 08:10:37;;;;;;;6.90;2.97;;;;;;;9.35;90.22;97725.16;5024875;28;20049;-63
2023/01/01 08:13:06;;;;;;;7.68;3.08;;;;;;;9.31;90.59;97732.91;5043495;28;20052;-63
2023/01/01 08:15:33;;;;;;;6.13;2.53;;;;;;;9.26;91.07;97738.22;5037753;28;20212;-64
2023/01/01 08:18:02;;;;;;;5.25;2.45;;;;;;;9.31;90.56;97734.78;5044928;28;20387;-65
2023/01/01 08:20:30;;;;;;;5.45;2.17;;;;;;;9.41;90.00;97736.91;5026702;28;20436;-64
2023/01/01 08:23:00;;;;;;;6.05;2.67;;;;;;;9.44;89.74;97731.84;5028156;28;20045;-63
2023/01/01 08:25:33;;;;;;;4.20;2.10;;;;;;;9.48;89.52;97743.81;5048022;28;20194;-64
2023/01/01 08:28:00;;;;;;;6.05;2.80;;;;;;;9.39;89.79;97741.75;5047240;28;20045;-64
2023/01/01 08:30:26;;;;;;;7.50;2.38;;;;;;;9.24;91.48;97749.25;5047187;28;20056;-64
2023/01/01 08:32:53;;;;;;;6.13;2.50;;;;;;;9.16;91.50;97755.00;5045069;28;20087;-64
2023/01/01 08:35:20;;;;;;;6.28;2.20;;;;;;;9.16;92.10;97760.41;5045621;28;20052;-64
2023/01/01 08:37:46;;;;;;;3.95;2.03;;;;;;;9.13;92.09;97768.97;5047538;28;20507;-64
2023/01/01 08:40:13;;;;;;;7.07;3.28;;;;;;;9.03;92.72;97763.31;5038440;28;20045;-64
2023/01/01 08:42:40;;;;;;;5.22;2.28;;;;;;;9.00;93.52;97769.19;5041232;28;20083;-65
2023/01/01 08:45:07;;;;;;;5.50;2.80;;;;;;;9.03;93.78;97760.63;5042915;28;20505;-64
2023/01/01 08:47:34;;;;;;;4.75;2.47;;;;;;;9.04;93.49;97764.97;5046459;28;20036;-64
2023/01/01 08:50:00;;;;;;;6.22;2.72;;;;;;;9.07;93.55;97768.00;5034089;28;20045;-64
2023/01/01 08:52:27;;;;;;;5.85;2.65;;;;;;;9.22;92.98;97770.25;5028167;28;20038;-64
2023/01/01 08:54:53;;;;;;;6.07;3.00;;;;;;;9.33;92.07;97767.81;5031769;28;20049;-64
2023/01/01 08:57:20;;;;;;;5.68;2.42;;;;;;;9.35;92.29;97754.88;5046998;28;20056;-64
2023/01/01 08:59:46;;;;;;;7.90;3.20;;;;;;;9.39;92.41;97753.34;5046333;28;20123;-64
2023/01/01 09:02:13;;;;;;;6.25;3.00;;;;;;;9.48;92.42;97759.25;5045519;28;20044;-64
2023/01/01 09:04:40;;;;;;;7.30;2.80;;;;;;;9.61;91.24;97753.59;5030427;28;20045;-64
2023/01/01 09:07:06;;;;;;;5.55;2.70;;;;;;;9.80;89.87;97749.94;5029015;28;20041;-64
2023/01/01 09:09:33;;;;;;;7.53;2.88;;;;;;;9.87;89.20;97751.44;5060220;28;20047;-64
2023/01/01 09:12:04;;;;;;;5.82;3.15;;;;;;;9.96;88.13;97765.44;5043937;28;20103;-64
2023/01/01 09:14:32;;;;;;;;;;;;;;;10.08;87.95;97769.97;5044247;28;20082;-64
2023/01/01 09:16:59;;;;;;;8.25;2.90;;;;;;;10.01;87.79;97765.53;5039114;28;20052;-50
2023/01/01 09:19:26;;;;;;;6.80;3.30;;;;;;;10.06;87.53;97761.28;5033053;28;20048;-52
2023/01/01 09:21:53;;;;;;;5.85;3.03;;;;;;;10.08;87.99;97768.09;5037802;28;20464;-50
2023/01/01 09:24:19;;;;;;;6.90;2.75;;;;;;;10.14;86.89;97766.34;5037376;28;20135;-50
2023/01/01 09:26:46;;;;;;;7.82;3.38;;;;;;;10.13;87.45;97764.66;5043005;28;20049;-52
2023/01/01 09:29:17;;;;;;;5.60;3.08;;;;;;;10.10;88.43;97767.88;5055825;28;20048;-52
2023/01/01 09:31:44;;;;;;;9.98;3.13;;;;;;;10.04;88.93;97776.94;5036424;28;20045;-50
2023/01/01 09:34:10;;;;;;;7.05;3.22;;;;;;;10.06;89.06;97782.94;5029529;28;20642;-47
2023/01/01 09:36:37;;;;;;;6.82;3.10;;;;;;;10.07;89.46;97785.41;5024221;28;20099;-50
2023/01/01 09:39:04;;;;;;;7.63;3.17;;;;;;;10.34;86.67;97781.31;5030635;28;20033;-64
2023/01/01 09:41:42;;;;;;;6.50;2.85;;;;;;;10.48;86.67;97776.47;5035221;28;20574;-64
2023/01/01 09:44:50;;;;;;;8.50;3.10;;;;;;;10.66;84.96;97776.28;5030966;28;20037;-64
2023/01/01 09:47:29;;;;;;;6.78;2.83;;;;;;;10.95;83.62;97775.44;5035931;28;20118;-64
2023/01/01 09:50:02;;;;;;;9.10;3.05;;;;;;;11.17;83.17;97775.53;5033746;28;20037;-64
2023/01/01 09:52:49;;;;;;;9.80;3.90;;;;;;;11.40;80.70;97778.34;5032181;28;20564;-64
2023/01/01 09:55:33;;;;;;;5.32;2.60;;;;;;;11.53;80.74;97786.13;5038545;28;20040;-65
2023/01/01 09:57:59;;;;;;;8.25;3.45;;;;;;;11.64;79.15;97787.09;5029908;28;20072;-64
2023/01/01 10:00:31;;;;;;;5.70;2.65;;;;;;;11.66;79.07;97789.56;5056259;28;20075;-64
2023/01/01 10:03:09;;;;;;;5.47;2.70;;;;;;;11.70;79.15;97780.69;5029103;28;20042;-65
2023/01/01 10:05:52;;;;;;;9.00;3.30;;;;;;;11.86;77.99;97780.88;5043099;28;20044;-64
2023/01/01 10:08:36;;;;;;;5.35;2.58;;;;;;;11.88;77.40;97772.50;5031329;28;20394;-64
2023/01/01 10:11:23;;;;;;;6.07;2.88;;;;;;;12.02;77.14;97776.47;5035216;28;20110;-63
2023/01/01 10:13:52;;;;;;;7.43;2.70;;;;;;;12.06;77.63;97780.38;5033605;28;20512;-65
2023/01/01 10:16:40;;;;;;;6.72;2.45;;;;;;;12.19;76.51;97778.34;5040019;28;20462;-64
2023/01/01 10:19:27;;;;;;;6.70;2.97;;;;;;;12.28;75.56;97776.88;5031082;28;20052;-64
2023/01/01 10:22:00;;;;;;;4.80;2.45;;;;;;;12.38;75.27;97775.34;5036842;28;20037;-65
2023/01/01 10:24:34;;;;;;;5.70;2.90;;;;;;;12.65;74.20;97775.38;5032766;28;20480;-64
2023/01/01 10:27:04;;;;;;;5.93;2.53;;;;;;;12.84;72.31;97775.84;5042265;28;20053;-64
2023/01/01 10:29:51;;;;;;;5.35;2.47;;;;;;;12.97;71.54;97768.34;5030327;28;20815;-64
2023/01/01 10:32:29;;;;;;;6.35;2.08;;;;;;;13.05;72.13;97762.41;5036342;28;20042;-64
2023/01/01 10:34:56;;;;;;;5.55;2.40;;;;;;;13.13;70.85;97767.38;5033958;28;20082;-65
2023/01/01 10:37:24;;;;;;;8.40;2.92;;;;;;;13.18;70.33;97765.78;5029468;28;20125;-64
2023/01/01 10:39:50;;;;;;;5.43;2.17;;;;;;;13.21;69.14;97766.09;5036974;28;20049;-64
2023/01/01 10:42:17;;;;;;;7.47;2.40;;;;;;;13.33;68.80;97762.38;5027930;28;20045;-64
2023/01/01 10:44:44;;;;;;;4.68;2.10;;;;;;;13.40;69.40;97762.97;5033176;28;20350;-64
2023/01/01 10:47:27;;;;;;;7.10;2.10;;;;;;;13.58;68.36;97763.66;5028251;28;20069;-62
2023/01/01 10:49:56;;;;;;;7.43;1.85;;;;;;;13.62;67.05;97767.50;5040298;28;20052;-63
2023/01/01 10:52:29;;;;;;;4.85;2.17;;;;;;;13.69;66.30;97765.38;5035922;28;20433;-62
2023/01/01 10:54:55;;;;;;;5.47;2.20;;;;;;;13.68;66.53;97762.91;5040137;28;20436;-62
2023/01/01 10:57:32;;;;;;;6.35;2.38;;;;;;;13.74;66.30;97759.97;5025134;28;20459;-62
2023/01/01 11:00:26;;;;;;;7.22;2.33;;;;;;;13.79;67.75;97759.97;5035082;28;20045;-62
2023/01/01 11:03:17;;;;;;;4.38;2.05;;;;;;;13.87;65.75;97758.69;5030404;28;20175;-63
2023/01/01 11:06:01;;;;;;;6.03;2.35;;;;;;;13.93;66.82;97755.97;5027902;28;20099;-62
2023/01/01 11:08:30;;;;;;;6.10;2.72;;;;;;;14.00;65.91;97753.81;5031035;28;20106;-62
2023/01/01 11:10:59;;;;;;;6.38;2.60;;;;;;;13.93;65.06;97748.63;5034166;28;20055;-62
2023/01/01 11:13:27;;;;;;;6.00;2.40;;;;;;;14.01;65.22;97756.28;5042711;28;20190;-63
2023/01/01 11:15:55;;;;;;;7.82;2.30;;;;;;;14.12;64.90;97759.06;5035314;28;20484;-64
2023/01/01 11:18:27;;;;;;;4.90;2.10;;;;;;;14.18;65.71;97752.53;5042801;28;20065;-65
2023/01/01 11:20:55;;;;;;;7.13;2.70;;;;;;;14.11;65.52;97752.78;5033861;28;20055;-65
2023/01/01 11:23:28;;;;;;;8.65;3.22;;;;;;;14.11;65.74;97747.34;5029063;28;20103;-62
2023/01/01 11:25:58;;;;;;;5.07;2.45;;;;;;;14.13;67.04;97742.47;5021460;28;20048;-62
2023/01/01 11:28:25;;;;;;;5.70;2.53;;;;;;;14.16;66.04;97739.19;5022901;28;20121;-61
2023/01/01 11:31:13;;;;;;;7.50;3.20;;;;;;;14.18;65.38;97728.03;5023184;28;20540;-62
2023/01/01 11:33:47;;;;;;;6.10;2.58;;;;;;;14.23;65.43;97725.31;5036741;28;20470;-62
2023/01/01 11:36:27;;;;;;;4.47;2.20;;;;;;;14.25;65.08;97725.06;5033700;28;20457;-64
2023/01/01 11:39:25;;;;;;;7.25;2.33;;;;;;;14.25;65.60;97712.28;5032267;28;20045;-63
2023/01/01 11:41:56;;;;;;;4.25;2.20;;;;;;;14.25;65.22;97709.53;5027294;28;20061;-63
2023/01/01 11:44:35;;;;;;;5.22;2.95;;;;;;;14.26;66.69;97713.09;5037821;28;20128;-63
2023/01/01 11:47:03;;;;;;;6.38;2.40;;;;;;;14.25;66.14;97700.56;5033135;28;20105;-62
2023/01/01 11:49:30;;;;;;;8.77;2.50;;;;;;;14.29;65.87;97698.94;5045744;28;20160;-63
2023/01/01 11:51:58;;;;;;;4.53;2.22;;;;;;;14.26;65.18;97702.22;5041143;28;20048;-62
2023/01/01 11:54:27;;;;;;;6.85;2.58;;;;;;;14.33;66.24;97693.78;5039351;28;20041;-62
2023/01/01 11:57:02;;;;;;;8.13;2.38;;;;;;;14.40;65.43;97694.31;5031831;28;20512;-62
2023/01/01 11:59:41;;;;;;;6.38;2.45;;;;;;;14.43;65.43;97691.06;5040133;28;20057;-62